sensor_id;sensor_type;location;lat;lon;timestamp;P1;durP1;ratioP1;P2;durP2;ratioP2
29210;SDS011;16250;49.932;10.980;2023-04-29T00:00:49;64.60;;;61.13;;
29210;SDS011;16250;49.932;10.980;2023-04-29T00:03:14;64.28;;;60.65;;
29210;SDS011;16250;49.932;10.980;2023-04-29T00:05:41;62.00;;;58.65;;
29210;SDS011;16250;49.932;10.980;2023-04-29T00:08:06;61.47;;;58.00;;
29210;SDS011;16250;49.932;10.980;2023-04-29T00:10:32;60.17;;;56.88;;
29210;SDS011;16250;49.932;10.980;2023-04-29T00:12:57;60.55;;;57.25;;
29210;SDS011;16250;49.932;10.980;2023-04-29T00:15:22;61.10;;;57.80;;
29210;SDS011;16250;49.932;10.980;2023-04-29T00:17:48;63.05;;;59.78;;
29210;SDS011;16250;49.932;10.980;2023-04-29T00:20:14;61.42;;;58.22;;
29210;SDS011;16250;49.932;10.980;2023-04-29T00:22:40;61.13;;;57.75;;
29210;SDS011;16250;49.932;10.980;2023-04-29T00:25:05;60.10;;;57.00;;
29210;SDS011;16250;49.932;10.980;2023-04-29T00:27:31;62.22;;;58.92;;
29210;SDS011;16250;49.932;10.980;2023-04-29T00:29:57;60.65;;;57.45;;
29210;SDS011;16250;49.932;10.980;2023-04-29T00:32:22;61.00;;;57.60;;
29210;SDS011;16250;49.932;10.980;2023-04-29T00:34:48;61.60;;;58.20;;
29210;SDS011;16250;49.932;10.980;2023-04-29T00:37:13;64.35;;;60.85;;
29210;SDS011;16250;49.932;10.980;2023-04-29T00:39:39;62.08;;;58.88;;
29210;SDS011;16250;49.932;10.980;2023-04-29T00:42:04;60.75;;;57.60;;
29210;SDS011;16250;49.932;10.980;2023-04-29T00:44:29;61.45;;;58.25;;
29210;SDS011;16250;49.932;10.980;2023-04-29T00:46:55;60.80;;;57.50;;
29210;SDS011;16250;49.932;10.980;2023-04-29T00:49:21;61.13;;;57.83;;
29210;SDS011;16250;49.932;10.980;2023-04-29T00:51:46;62.35;;;58.75;;
29210;SDS011;16250;49.932;10.980;2023-04-29T00:54:12;62.08;;;58.58;;
29210;SDS011;16250;49.932;10.980;2023-04-29T00:56:38;62.65;;;59.05;;
29210;SDS011;16250;49.932;10.980;2023-04-29T00:59:07;62.70;;;59.00;;
29210;SDS011;16250;49.932;10.980;2023-04-29T01:01:34;61.70;;;58.28;;
29210;SDS011;16250;49.932;10.980;2023-04-29T01:04:00;62.83;;;59.38;;
29210;SDS011;16250;49.932;10.980;2023-04-29T01:14:45;66.55;;;63.03;;
29210;SDS011;16250;49.932;10.980;2023-04-29T01:17:37;66.10;;;62.50;;
29210;SDS011;16250;49.932;10.980;2023-04-29T01:20:05;62.50;;;58.80;;
29210;SDS011;16250;49.932;10.980;2023-04-29T01:22:31;62.45;;;59.03;;
29210;SDS011;16250;49.932;10.980;2023-04-29T01:24:57;64.78;;;61.08;;
29210;SDS011;16250;49.932;10.980;2023-04-29T01:27:30;63.10;;;59.53;;
29210;SDS011;16250;49.932;10.980;2023-04-29T01:32:38;64.47;;;61.10;;
29210;SDS011;16250;49.932;10.980;2023-04-29T01:35:16;64.13;;;60.63;;
29210;SDS011;16250;49.932;10.980;2023-04-29T01:37:59;65.20;;;61.38;;
29210;SDS011;16250;49.932;10.980;2023-04-29T01:40:36;64.03;;;60.38;;
29210;SDS011;16250;49.932;10.980;2023-04-29T01:43:13;69.22;;;65.22;;
29210;SDS011;16250;49.932;10.980;2023-04-29T01:45:43;65.78;;;61.88;;
29210;SDS011;16250;49.932;10.980;2023-04-29T01:48:10;64.80;;;60.97;;
29210;SDS011;16250;49.932;10.980;2023-04-29T01:50:36;66.20;;;62.20;;
29210;SDS011;16250;49.932;10.980;2023-04-29T01:53:09;64.43;;;60.72;;
29210;SDS011;16250;49.932;10.980;2023-04-29T01:55:35;64.68;;;61.20;;
29210;SDS011;16250;49.932;10.980;2023-04-29T01:58:21;67.27;;;63.37;;
29210;SDS011;16250;49.932;10.980;2023-04-29T02:00:58;68.88;;;64.88;;
29210;SDS011;16250;49.932;10.980;2023-04-29T02:03:25;66.63;;;62.78;;
29210;SDS011;16250;49.932;10.980;2023-04-29T02:05:54;68.80;;;64.63;;
29210;SDS011;16250;49.932;10.980;2023-04-29T02:08:19;67.80;;;63.70;;
29210;SDS011;16250;49.932;10.980;2023-04-29T02:10:55;63.40;;;59.75;;
29210;SDS011;16250;49.932;10.980;2023-04-29T02:13:38;63.33;;;59.83;;
29210;SDS011;16250;49.932;10.980;2023-04-29T02:16:08;66.45;;;61.97;;
29210;SDS011;16250;49.932;10.980;2023-04-29T02:18:41;67.15;;;63.22;;
29210;SDS011;16250;49.932;10.980;2023-04-29T02:21:06;67.63;;;63.53;;
29210;SDS011;16250;49.932;10.980;2023-04-29T02:23:33;68.13;;;63.42;;
29210;SDS011;16250;49.932;10.980;2023-04-29T02:25:59;69.90;;;64.78;;
29210;SDS011;16250;49.932;10.980;2023-04-29T02:28:25;65.03;;;60.67;;
29210;SDS011;16250;49.932;10.980;2023-04-29T02:30:51;66.10;;;61.40;;
29210;SDS011;16250;49.932;10.980;2023-04-29T02:33:16;68.88;;;64.22;;
29210;SDS011;16250;49.932;10.980;2023-04-29T02:35:42;66.95;;;62.10;;
29210;SDS011;16250;49.932;10.980;2023-04-29T02:38:08;67.47;;;62.88;;
29210;SDS011;16250;49.932;10.980;2023-04-29T02:40:42;66.13;;;61.47;;
29210;SDS011;16250;49.932;10.980;2023-04-29T02:43:08;65.50;;;61.05;;
29210;SDS011;16250;49.932;10.980;2023-04-29T02:45:34;64.32;;;59.55;;
29210;SDS011;16250;49.932;10.980;2023-04-29T02:48:00;67.78;;;63.28;;
29210;SDS011;16250;49.932;10.980;2023-04-29T02:50:25;68.40;;;63.95;;
29210;SDS011;16250;49.932;10.980;2023-04-29T02:52:51;65.63;;;60.47;;
29210;SDS011;16250;49.932;10.980;2023-04-29T02:55:16;68.40;;;63.00;;
29210;SDS011;16250;49.932;10.980;2023-04-29T02:57:42;69.53;;;64.57;;
29210;SDS011;16250;49.932;10.980;2023-04-29T03:00:08;71.13;;;64.25;;
29210;SDS011;16250;49.932;10.980;2023-04-29T03:02:34;69.45;;;63.25;;
29210;SDS011;16250;49.932;10.980;2023-04-29T03:05:00;69.00;;;64.13;;
29210;SDS011;16250;49.932;10.980;2023-04-29T03:07:25;69.57;;;64.10;;
29210;SDS011;16250;49.932;10.980;2023-04-29T03:09:51;71.15;;;65.68;;
29210;SDS011;16250;49.932;10.980;2023-04-29T03:12:17;70.38;;;65.10;;
29210;SDS011;16250;49.932;10.980;2023-04-29T03:14:44;72.93;;;66.88;;
29210;SDS011;16250;49.932;10.980;2023-04-29T03:17:11;67.47;;;62.53;;
29210;SDS011;16250;49.932;10.980;2023-04-29T03:19:37;71.57;;;66.35;;
29210;SDS011;16250;49.932;10.980;2023-04-29T03:22:03;76.85;;;70.28;;
29210;SDS011;16250;49.932;10.980;2023-04-29T03:24:28;80.32;;;72.70;;
29210;SDS011;16250;49.932;10.980;2023-04-29T03:26:54;70.50;;;65.32;;
29210;SDS011;16250;49.932;10.980;2023-04-29T03:29:19;72.30;;;66.15;;
29210;SDS011;16250;49.932;10.980;2023-04-29T03:31:45;69.53;;;64.43;;
29210;SDS011;16250;49.932;10.980;2023-04-29T03:34:11;69.18;;;63.63;;
29210;SDS011;16250;49.932;10.980;2023-04-29T03:36:41;66.50;;;61.45;;
29210;SDS011;16250;49.932;10.980;2023-04-29T03:39:06;75.80;;;67.68;;
29210;SDS011;16250;49.932;10.980;2023-04-29T03:41:32;70.88;;;65.43;;
29210;SDS011;16250;49.932;10.980;2023-04-29T03:43:57;73.32;;;64.53;;
29210;SDS011;16250;49.932;10.980;2023-04-29T03:46:26;72.93;;;64.85;;
29210;SDS011;16250;49.932;10.980;2023-04-29T03:48:51;67.70;;;62.20;;
29210;SDS011;16250;49.932;10.980;2023-04-29T03:51:21;72.25;;;66.38;;
29210;SDS011;16250;49.932;10.980;2023-04-29T03:53:48;69.82;;;64.45;;
29210;SDS011;16250;49.932;10.980;2023-04-29T03:56:16;73.93;;;67.28;;
29210;SDS011;16250;49.932;10.980;2023-04-29T03:58:42;74.53;;;67.50;;
29210;SDS011;16250;49.932;10.980;2023-04-29T04:01:07;72.55;;;67.07;;
29210;SDS011;16250;49.932;10.980;2023-04-29T04:03:39;73.15;;;67.03;;
29210;SDS011;16250;49.932;10.980;2023-04-29T04:06:07;71.35;;;66.35;;
29210;SDS011;16250;49.932;10.980;2023-04-29T04:08:33;71.90;;;66.20;;
29210;SDS011;16250;49.932;10.980;2023-04-29T04:11:28;69.53;;;64.47;;
29210;SDS011;16250;49.932;10.980;2023-04-29T04:13:59;66.78;;;61.70;;
29210;SDS011;16250;49.932;10.980;2023-04-29T04:16:24;73.80;;;67.00;;
29210;SDS011;16250;49.932;10.980;2023-04-29T04:18:50;69.47;;;64.70;;
29210;SDS011;16250;49.932;10.980;2023-04-29T04:21:16;70.90;;;64.72;;
29210;SDS011;16250;49.932;10.980;2023-04-29T04:23:46;66.85;;;62.33;;
29210;SDS011;16250;49.932;10.980;2023-04-29T04:26:16;67.25;;;62.42;;
29210;SDS011;16250;49.932;10.980;2023-04-29T04:28:57;71.03;;;65.97;;
29210;SDS011;16250;49.932;10.980;2023-04-29T04:31:31;72.40;;;66.50;;
29210;SDS011;16250;49.932;10.980;2023-04-29T04:33:57;69.10;;;63.85;;
29210;SDS011;16250;49.932;10.980;2023-04-29T04:36:24;71.32;;;66.35;;
29210;SDS011;16250;49.932;10.980;2023-04-29T04:38:50;74.25;;;68.45;;
29210;SDS011;16250;49.932;10.980;2023-04-29T04:41:15;71.72;;;65.82;;
29210;SDS011;16250;49.932;10.980;2023-04-29T04:43:43;67.78;;;63.17;;
29210;SDS011;16250;49.932;10.980;2023-04-29T04:46:17;71.68;;;65.55;;
29210;SDS011;16250;49.932;10.980;2023-04-29T04:48:54;66.10;;;61.20;;
29210;SDS011;16250;49.932;10.980;2023-04-29T04:51:20;70.05;;;64.18;;
29210;SDS011;16250;49.932;10.980;2023-04-29T04:53:45;66.60;;;61.85;;
29210;SDS011;16250;49.932;10.980;2023-04-29T04:56:18;68.38;;;63.53;;
29210;SDS011;16250;49.932;10.980;2023-04-29T04:58:44;68.72;;;63.95;;
29210;SDS011;16250;49.932;10.980;2023-04-29T05:01:10;68.45;;;63.95;;
29210;SDS011;16250;49.932;10.980;2023-04-29T05:03:35;66.82;;;62.47;;
29210;SDS011;16250;49.932;10.980;2023-04-29T05:06:01;69.35;;;64.97;;
29210;SDS011;16250;49.932;10.980;2023-04-29T05:08:27;69.32;;;64.75;;
29210;SDS011;16250;49.932;10.980;2023-04-29T05:10:54;70.70;;;65.90;;
29210;SDS011;16250;49.932;10.980;2023-04-29T05:13:20;70.82;;;66.15;;
29210;SDS011;16250;49.932;10.980;2023-04-29T05:15:46;68.82;;;64.57;;
29210;SDS011;16250;49.932;10.980;2023-04-29T05:18:15;68.75;;;64.35;;
29210;SDS011;16250;49.932;10.980;2023-04-29T05:20:42;71.65;;;66.78;;
29210;SDS011;16250;49.932;10.980;2023-04-29T05:23:07;70.07;;;65.45;;
29210;SDS011;16250;49.932;10.980;2023-04-29T05:25:37;70.30;;;65.90;;
29210;SDS011;16250;49.932;10.980;2023-04-29T05:28:03;70.88;;;66.18;;
29210;SDS011;16250;49.932;10.980;2023-04-29T05:30:31;70.65;;;66.25;;
29210;SDS011;16250;49.932;10.980;2023-04-29T05:32:57;69.95;;;65.57;;
29210;SDS011;16250;49.932;10.980;2023-04-29T05:35:22;71.93;;;67.82;;
29210;SDS011;16250;49.932;10.980;2023-04-29T05:37:48;71.75;;;67.38;;
29210;SDS011;16250;49.932;10.980;2023-04-29T05:40:22;71.55;;;67.15;;
29210;SDS011;16250;49.932;10.980;2023-04-29T05:42:49;73.10;;;68.45;;
29210;SDS011;16250;49.932;10.980;2023-04-29T05:45:15;76.03;;;71.47;;
29210;SDS011;16250;49.932;10.980;2023-04-29T05:47:41;74.72;;;70.07;;
29210;SDS011;16250;49.932;10.980;2023-04-29T05:50:06;73.40;;;68.90;;
29210;SDS011;16250;49.932;10.980;2023-04-29T05:52:32;71.50;;;67.32;;
29210;SDS011;16250;49.932;10.980;2023-04-29T05:54:57;74.75;;;70.07;;
29210;SDS011;16250;49.932;10.980;2023-04-29T05:57:22;71.40;;;67.20;;
29210;SDS011;16250;49.932;10.980;2023-04-29T05:59:48;70.68;;;66.57;;
29210;SDS011;16250;49.932;10.980;2023-04-29T06:02:13;69.50;;;65.35;;
29210;SDS011;16250;49.932;10.980;2023-04-29T06:04:40;72.07;;;67.72;;
29210;SDS011;16250;49.932;10.980;2023-04-29T06:07:38;74.22;;;69.68;;
29210;SDS011;16250;49.932;10.980;2023-04-29T06:10:30;72.57;;;68.28;;
29210;SDS011;16250;49.932;10.980;2023-04-29T06:12:56;74.97;;;70.38;;
29210;SDS011;16250;49.932;10.980;2023-04-29T06:15:21;74.07;;;69.45;;
29210;SDS011;16250;49.932;10.980;2023-04-29T06:17:47;71.57;;;67.57;;
29210;SDS011;16250;49.932;10.980;2023-04-29T06:20:12;72.53;;;68.35;;
29210;SDS011;16250;49.932;10.980;2023-04-29T06:22:38;73.00;;;68.68;;
29210;SDS011;16250;49.932;10.980;2023-04-29T06:25:03;73.28;;;68.93;;
29210;SDS011;16250;49.932;10.980;2023-04-29T06:27:42;73.40;;;69.07;;
29210;SDS011;16250;49.932;10.980;2023-04-29T06:30:08;75.25;;;70.75;;
29210;SDS011;16250;49.932;10.980;2023-04-29T06:32:34;73.10;;;68.68;;
29210;SDS011;16250;49.932;10.980;2023-04-29T06:34:59;77.15;;;72.55;;
29210;SDS011;16250;49.932;10.980;2023-04-29T06:37:43;73.13;;;68.80;;
29210;SDS011;16250;49.932;10.980;2023-04-29T06:40:26;72.47;;;68.07;;
29210;SDS011;16250;49.932;10.980;2023-04-29T06:43:24;72.30;;;67.78;;
29210;SDS011;16250;49.932;10.980;2023-04-29T06:46:09;71.03;;;66.93;;
29210;SDS011;16250;49.932;10.980;2023-04-29T06:48:43;71.88;;;67.75;;
29210;SDS011;16250;49.932;10.980;2023-04-29T06:51:09;68.35;;;64.38;;
29210;SDS011;16250;49.932;10.980;2023-04-29T06:53:37;69.40;;;65.22;;
29210;SDS011;16250;49.932;10.980;2023-04-29T06:56:03;68.53;;;64.75;;
29210;SDS011;16250;49.932;10.980;2023-04-29T06:58:30;67.25;;;63.60;;
29210;SDS011;16250;49.932;10.980;2023-04-29T07:00:55;63.72;;;59.97;;
29210;SDS011;16250;49.932;10.980;2023-04-29T07:03:21;64.82;;;61.38;;
29210;SDS011;16250;49.932;10.980;2023-04-29T07:05:46;63.17;;;59.47;;
29210;SDS011;16250;49.932;10.980;2023-04-29T07:08:12;63.35;;;59.85;;
29210;SDS011;16250;49.932;10.980;2023-04-29T07:10:37;66.63;;;63.13;;
29210;SDS011;16250;49.932;10.980;2023-04-29T07:13:03;60.53;;;57.20;;
29210;SDS011;16250;49.932;10.980;2023-04-29T07:15:29;65.50;;;61.88;;
29210;SDS011;16250;49.932;10.980;2023-04-29T07:17:55;63.38;;;59.97;;
29210;SDS011;16250;49.932;10.980;2023-04-29T07:20:20;60.50;;;57.10;;
29210;SDS011;16250;49.932;10.980;2023-04-29T07:22:46;59.03;;;55.55;;
29210;SDS011;16250;49.932;10.980;2023-04-29T07:25:11;55.47;;;52.35;;
29210;SDS011;16250;49.932;10.980;2023-04-29T07:27:37;57.80;;;54.78;;
29210;SDS011;16250;49.932;10.980;2023-04-29T07:30:03;61.08;;;57.78;;
29210;SDS011;16250;49.932;10.980;2023-04-29T07:32:29;63.13;;;59.47;;
29210;SDS011;16250;49.932;10.980;2023-04-29T07:35:01;62.88;;;59.42;;
29210;SDS011;16250;49.932;10.980;2023-04-29T07:37:26;61.47;;;58.08;;
29210;SDS011;16250;49.932;10.980;2023-04-29T07:39:52;63.22;;;59.63;;
29210;SDS011;16250;49.932;10.980;2023-04-29T07:42:17;63.75;;;60.25;;
29210;SDS011;16250;49.932;10.980;2023-04-29T07:44:43;66.70;;;63.05;;
29210;SDS011;16250;49.932;10.980;2023-04-29T07:47:09;65.25;;;61.55;;
29210;SDS011;16250;49.932;10.980;2023-04-29T07:49:35;65.97;;;62.38;;
29210;SDS011;16250;49.932;10.980;2023-04-29T07:52:01;68.35;;;64.45;;
29210;SDS011;16250;49.932;10.980;2023-04-29T07:54:26;68.45;;;64.65;;
29210;SDS011;16250;49.932;10.980;2023-04-29T07:56:52;65.47;;;61.90;;
29210;SDS011;16250;49.932;10.980;2023-04-29T07:59:18;60.83;;;57.42;;
29210;SDS011;16250;49.932;10.980;2023-04-29T08:01:44;56.97;;;53.65;;
29210;SDS011;16250;49.932;10.980;2023-04-29T08:04:09;52.10;;;49.10;;
29210;SDS011;16250;49.932;10.980;2023-04-29T08:06:45;50.08;;;47.28;;
29210;SDS011;16250;49.932;10.980;2023-04-29T08:09:11;38.50;;;36.28;;
29210;SDS011;16250;49.932;10.980;2023-04-29T08:11:39;48.72;;;46.10;;
29210;SDS011;16250;49.932;10.980;2023-04-29T08:14:05;52.95;;;49.95;;
29210;SDS011;16250;49.932;10.980;2023-04-29T08:16:30;50.55;;;47.78;;
29210;SDS011;16250;49.932;10.980;2023-04-29T08:18:56;45.10;;;42.60;;
29210;SDS011;16250;49.932;10.980;2023-04-29T08:21:22;42.03;;;39.72;;
29210;SDS011;16250;49.932;10.980;2023-04-29T08:23:47;37.35;;;35.17;;
29210;SDS011;16250;49.932;10.980;2023-04-29T08:26:13;30.55;;;28.75;;
29210;SDS011;16250;49.932;10.980;2023-04-29T08:28:38;27.70;;;25.80;;
29210;SDS011;16250;49.932;10.980;2023-04-29T08:31:04;29.38;;;27.58;;
29210;SDS011;16250;49.932;10.980;2023-04-29T08:33:34;32.13;;;30.10;;
29210;SDS011;16250;49.932;10.980;2023-04-29T08:36:01;29.98;;;28.08;;
29210;SDS011;16250;49.932;10.980;2023-04-29T08:38:28;30.33;;;28.42;;
29210;SDS011;16250;49.932;10.980;2023-04-29T08:40:53;23.80;;;22.30;;
29210;SDS011;16250;49.932;10.980;2023-04-29T08:43:20;25.45;;;23.85;;
29210;SDS011;16250;49.932;10.980;2023-04-29T08:45:46;22.10;;;20.55;;
29210;SDS011;16250;49.932;10.980;2023-04-29T08:48:12;26.48;;;24.77;;
29210;SDS011;16250;49.932;10.980;2023-04-29T08:50:39;23.85;;;22.35;;
29210;SDS011;16250;49.932;10.980;2023-04-29T08:53:06;26.48;;;24.67;;
29210;SDS011;16250;49.932;10.980;2023-04-29T08:55:44;24.00;;;22.42;;
29210;SDS011;16250;49.932;10.980;2023-04-29T08:58:11;23.15;;;21.58;;
29210;SDS011;16250;49.932;10.980;2023-04-29T09:00:37;22.30;;;20.80;;
29210;SDS011;16250;49.932;10.980;2023-04-29T09:03:49;21.02;;;19.52;;
29210;SDS011;16250;49.932;10.980;2023-04-29T09:05:59;19.27;;;17.88;;
29210;SDS011;16250;49.932;10.980;2023-04-29T09:08:25;25.23;;;23.65;;
29210;SDS011;16250;49.932;10.980;2023-04-29T09:10:51;18.75;;;17.35;;
29210;SDS011;16250;49.932;10.980;2023-04-29T09:15:52;18.23;;;16.87;;
29210;SDS011;16250;49.932;10.980;2023-04-29T09:21:11;14.40;;;13.30;;
29210;SDS011;16250;49.932;10.980;2023-04-29T09:24:01;14.35;;;13.25;;
29210;SDS011;16250;49.932;10.980;2023-04-29T09:26:33;13.00;;;11.90;;
29210;SDS011;16250;49.932;10.980;2023-04-29T09:29:06;13.75;;;12.65;;
29210;SDS011;16250;49.932;10.980;2023-04-29T09:31:40;14.05;;;12.95;;
29210;SDS011;16250;49.932;10.980;2023-04-29T09:34:06;16.35;;;14.95;;
29210;SDS011;16250;49.932;10.980;2023-04-29T09:36:35;15.68;;;14.50;;
29210;SDS011;16250;49.932;10.980;2023-04-29T09:39:11;13.23;;;12.07;;
29210;SDS011;16250;49.932;10.980;2023-04-29T09:41:39;11.40;;;10.40;;
29210;SDS011;16250;49.932;10.980;2023-04-29T09:44:16;16.55;;;15.23;;
29210;SDS011;16250;49.932;10.980;2023-04-29T09:46:42;12.85;;;11.75;;
29210;SDS011;16250;49.932;10.980;2023-04-29T09:49:26;11.73;;;10.75;;
29210;SDS011;16250;49.932;10.980;2023-04-29T09:52:00;9.23;;;8.25;;
29210;SDS011;16250;49.932;10.980;2023-04-29T09:54:27;9.18;;;8.27;;
29210;SDS011;16250;49.932;10.980;2023-04-29T09:56:54;9.57;;;8.15;;
29210;SDS011;16250;49.932;10.980;2023-04-29T09:59:20;8.68;;;7.88;;
29210;SDS011;16250;49.932;10.980;2023-04-29T10:01:47;10.90;;;8.75;;
29210;SDS011;16250;49.932;10.980;2023-04-29T10:04:14;8.70;;;7.70;;
29210;SDS011;16250;49.932;10.980;2023-04-29T10:06:41;10.57;;;9.68;;
29210;SDS011;16250;49.932;10.980;2023-04-29T10:09:09;8.52;;;7.72;;
29210;SDS011;16250;49.932;10.980;2023-04-29T10:11:40;7.82;;;6.88;;
29210;SDS011;16250;49.932;10.980;2023-04-29T10:14:06;9.02;;;6.75;;
29210;SDS011;16250;49.932;10.980;2023-04-29T10:16:33;8.15;;;6.75;;
29210;SDS011;16250;49.932;10.980;2023-04-29T10:18:59;7.47;;;6.65;;
29210;SDS011;16250;49.932;10.980;2023-04-29T10:21:28;7.40;;;6.32;;
29210;SDS011;16250;49.932;10.980;2023-04-29T10:23:57;6.68;;;6.00;;
29210;SDS011;16250;49.932;10.980;2023-04-29T10:26:28;7.50;;;6.68;;
29210;SDS011;16250;49.932;10.980;2023-04-29T10:28:57;7.78;;;7.07;;
29210;SDS011;16250;49.932;10.980;2023-04-29T10:31:27;8.27;;;7.47;;
29210;SDS011;16250;49.932;10.980;2023-04-29T10:33:54;10.77;;;9.93;;
29210;SDS011;16250;49.932;10.980;2023-04-29T10:36:21;12.95;;;12.00;;
29210;SDS011;16250;49.932;10.980;2023-04-29T10:38:48;12.25;;;11.25;;
29210;SDS011;16250;49.932;10.980;2023-04-29T10:41:20;11.95;;;11.05;;
29210;SDS011;16250;49.932;10.980;2023-04-29T10:43:52;12.45;;;11.65;;
29210;SDS011;16250;49.932;10.980;2023-04-29T10:46:21;12.82;;;11.82;;
29210;SDS011;16250;49.932;10.980;2023-04-29T10:48:48;13.77;;;12.85;;
29210;SDS011;16250;49.932;10.980;2023-04-29T10:51:31;15.75;;;14.68;;
29210;SDS011;16250;49.932;10.980;2023-04-29T10:54:16;13.38;;;12.55;;
29210;SDS011;16250;49.932;10.980;2023-04-29T10:56:50;13.75;;;12.95;;
29210;SDS011;16250;49.932;10.980;2023-04-29T10:59:20;14.30;;;13.40;;
29210;SDS011;16250;49.932;10.980;2023-04-29T11:01:49;16.42;;;15.55;;
29210;SDS011;16250;49.932;10.980;2023-04-29T11:04:16;17.02;;;16.15;;
29210;SDS011;16250;49.932;10.980;2023-04-29T11:06:43;15.80;;;14.95;;
29210;SDS011;16250;49.932;10.980;2023-04-29T11:17:13;18.83;;;17.77;;
29210;SDS011;16250;49.932;10.980;2023-04-29T11:19:45;14.18;;;13.48;;
29210;SDS011;16250;49.932;10.980;2023-04-29T11:27:22;13.88;;;12.93;;
29210;SDS011;16250;49.932;10.980;2023-04-29T11:29:50;17.25;;;16.45;;
29210;SDS011;16250;49.932;10.980;2023-04-29T11:32:19;13.95;;;13.27;;
29210;SDS011;16250;49.932;10.980;2023-04-29T11:34:46;18.50;;;17.60;;
29210;SDS011;16250;49.932;10.980;2023-04-29T11:37:11;17.70;;;16.90;;
29210;SDS011;16250;49.932;10.980;2023-04-29T11:39:36;20.70;;;19.73;;
29210;SDS011;16250;49.932;10.980;2023-04-29T11:42:05;15.75;;;14.82;;
29210;SDS011;16250;49.932;10.980;2023-04-29T11:44:34;24.45;;;23.35;;
29210;SDS011;16250;49.932;10.980;2023-04-29T11:47:06;15.77;;;15.02;;
29210;SDS011;16250;49.932;10.980;2023-04-29T11:49:32;15.82;;;15.02;;
29210;SDS011;16250;49.932;10.980;2023-04-29T11:51:58;16.52;;;15.73;;
29210;SDS011;16250;49.932;10.980;2023-04-29T11:54:27;17.85;;;16.92;;
29210;SDS011;16250;49.932;10.980;2023-04-29T11:56:53;15.20;;;14.50;;
29210;SDS011;16250;49.932;10.980;2023-04-29T11:59:22;14.75;;;13.88;;
29210;SDS011;16250;49.932;10.980;2023-04-29T12:01:51;16.45;;;15.65;;
29210;SDS011;16250;49.932;10.980;2023-04-29T12:04:16;20.65;;;19.63;;
29210;SDS011;16250;49.932;10.980;2023-04-29T12:06:43;21.35;;;20.33;;
29210;SDS011;16250;49.932;10.980;2023-04-29T12:09:08;17.20;;;16.30;;
29210;SDS011;16250;49.932;10.980;2023-04-29T12:11:35;15.32;;;14.52;;
29210;SDS011;16250;49.932;10.980;2023-04-29T12:14:00;15.70;;;14.52;;
29210;SDS011;16250;49.932;10.980;2023-04-29T12:16:28;15.35;;;14.43;;
29210;SDS011;16250;49.932;10.980;2023-04-29T12:18:54;9.65;;;9.05;;
29210;SDS011;16250;49.932;10.980;2023-04-29T12:21:22;11.88;;;11.07;;
29210;SDS011;16250;49.932;10.980;2023-04-29T12:23:49;11.05;;;10.27;;
29210;SDS011;16250;49.932;10.980;2023-04-29T12:26:15;9.13;;;8.50;;
29210;SDS011;16250;49.932;10.980;2023-04-29T12:28:42;7.00;;;6.38;;
29210;SDS011;16250;49.932;10.980;2023-04-29T12:31:08;8.25;;;7.65;;
29210;SDS011;16250;49.932;10.980;2023-04-29T12:33:33;8.32;;;7.72;;
29210;SDS011;16250;49.932;10.980;2023-04-29T12:35:59;6.85;;;6.35;;
29210;SDS011;16250;49.932;10.980;2023-04-29T12:38:25;7.05;;;6.45;;
29210;SDS011;16250;49.932;10.980;2023-04-29T12:40:52;7.97;;;7.38;;
29210;SDS011;16250;49.932;10.980;2023-04-29T12:43:18;6.85;;;6.45;;
29210;SDS011;16250;49.932;10.980;2023-04-29T12:45:44;7.55;;;6.93;;
29210;SDS011;16250;49.932;10.980;2023-04-29T12:48:10;6.20;;;5.80;;
29210;SDS011;16250;49.932;10.980;2023-04-29T12:50:36;6.22;;;5.82;;
29210;SDS011;16250;49.932;10.980;2023-04-29T12:53:03;5.63;;;5.18;;
29210;SDS011;16250;49.932;10.980;2023-04-29T12:55:34;6.05;;;5.47;;
29210;SDS011;16250;49.932;10.980;2023-04-29T12:58:01;6.13;;;5.53;;
29210;SDS011;16250;49.932;10.980;2023-04-29T13:00:27;6.88;;;6.38;;
29210;SDS011;16250;49.932;10.980;2023-04-29T13:02:52;5.80;;;5.30;;
29210;SDS011;16250;49.932;10.980;2023-04-29T13:05:18;7.65;;;7.05;;
29210;SDS011;16250;49.932;10.980;2023-04-29T13:07:43;6.32;;;5.80;;
29210;SDS011;16250;49.932;10.980;2023-04-29T13:10:08;7.25;;;6.63;;
29210;SDS011;16250;49.932;10.980;2023-04-29T13:12:36;12.00;;;10.80;;
29210;SDS011;16250;49.932;10.980;2023-04-29T13:15:02;5.82;;;5.32;;
29210;SDS011;16250;49.932;10.980;2023-04-29T13:17:28;8.15;;;7.45;;
29210;SDS011;16250;49.932;10.980;2023-04-29T13:19:53;5.10;;;4.70;;
29210;SDS011;16250;49.932;10.980;2023-04-29T13:22:19;6.90;;;6.30;;
29210;SDS011;16250;49.932;10.980;2023-04-29T13:24:44;5.95;;;5.50;;
29210;SDS011;16250;49.932;10.980;2023-04-29T13:27:10;5.82;;;4.90;;
29210;SDS011;16250;49.932;10.980;2023-04-29T13:29:35;5.55;;;5.05;;
29210;SDS011;16250;49.932;10.980;2023-04-29T13:32:01;4.18;;;3.80;;
29210;SDS011;16250;49.932;10.980;2023-04-29T13:34:26;5.05;;;4.47;;
29210;SDS011;16250;49.932;10.980;2023-04-29T13:36:52;7.63;;;6.85;;
29210;SDS011;16250;49.932;10.980;2023-04-29T13:39:17;3.88;;;3.58;;
29210;SDS011;16250;49.932;10.980;2023-04-29T13:41:43;6.32;;;4.95;;
29210;SDS011;16250;49.932;10.980;2023-04-29T13:44:09;3.55;;;3.25;;
29210;SDS011;16250;49.932;10.980;2023-04-29T13:46:35;2.95;;;2.72;;
29210;SDS011;16250;49.932;10.980;2023-04-29T13:49:00;4.20;;;3.08;;
29210;SDS011;16250;49.932;10.980;2023-04-29T13:51:26;4.03;;;2.72;;
29210;SDS011;16250;49.932;10.980;2023-04-29T13:53:51;2.92;;;2.63;;
29210;SDS011;16250;49.932;10.980;2023-04-29T13:56:17;12.30;;;7.70;;
29210;SDS011;16250;49.932;10.980;2023-04-29T13:58:42;3.72;;;2.67;;
29210;SDS011;16250;49.932;10.980;2023-04-29T14:01:08;2.63;;;2.42;;
29210;SDS011;16250;49.932;10.980;2023-04-29T14:03:33;2.85;;;2.60;;
29210;SDS011;16250;49.932;10.980;2023-04-29T14:05:58;2.88;;;2.67;;
29210;SDS011;16250;49.932;10.980;2023-04-29T14:08:25;2.90;;;2.70;;
29210;SDS011;16250;49.932;10.980;2023-04-29T14:10:50;3.65;;;2.70;;
29210;SDS011;16250;49.932;10.980;2023-04-29T14:13:15;2.10;;;1.90;;
29210;SDS011;16250;49.932;10.980;2023-04-29T14:15:42;3.03;;;2.72;;
29210;SDS011;16250;49.932;10.980;2023-04-29T14:18:07;6.22;;;4.30;;
29210;SDS011;16250;49.932;10.980;2023-04-29T14:20:33;4.72;;;4.05;;
29210;SDS011;16250;49.932;10.980;2023-04-29T14:22:59;2.08;;;1.88;;
29210;SDS011;16250;49.932;10.980;2023-04-29T14:25:24;3.35;;;1.88;;
29210;SDS011;16250;49.932;10.980;2023-04-29T14:27:49;9.00;;;5.97;;
29210;SDS011;16250;49.932;10.980;2023-04-29T14:30:15;3.78;;;3.17;;
29210;SDS011;16250;49.932;10.980;2023-04-29T14:32:41;7.72;;;5.43;;
29210;SDS011;16250;49.932;10.980;2023-04-29T14:35:06;5.85;;;4.95;;
29210;SDS011;16250;49.932;10.980;2023-04-29T14:37:32;3.30;;;3.00;;
29210;SDS011;16250;49.932;10.980;2023-04-29T14:39:57;4.93;;;3.60;;
29210;SDS011;16250;49.932;10.980;2023-04-29T14:42:23;3.42;;;3.13;;
29210;SDS011;16250;49.932;10.980;2023-04-29T14:44:48;3.50;;;3.20;;
29210;SDS011;16250;49.932;10.980;2023-04-29T14:47:14;3.40;;;3.10;;